createdAt,value
2018-07-07T00:01:50.127Z,18.86
2018-07-07T00:04:18.754Z,18.77
2018-07-07T00:06:47.315Z,18.75
2018-07-07T00:09:16.151Z,18.85
2018-07-07T00:11:44.711Z,18.85
2018-07-07T00:14:13.396Z,18.93
2018-07-07T00:16:41.982Z,18.71
2018-07-07T00:19:10.613Z,18.74
2018-07-07T00:21:39.195Z,18.78
2018-07-07T00:24:07.781Z,18.77
2018-07-07T00:26:36.362Z,18.79
2018-07-07T00:29:04.952Z,18.75
2018-07-07T00:31:33.476Z,18.76
2018-07-07T00:34:02.169Z,18.76
2018-07-07T00:36:30.703Z,18.73
2018-07-07T00:38:59.223Z,18.68
2018-07-07T00:41:27.765Z,18.77
2018-07-07T00:43:56.360Z,18.78
2018-07-07T00:46:24.980Z,18.84
2018-07-07T00:48:53.568Z,18.96
2018-07-07T00:51:22.110Z,18.91
2018-07-07T00:53:50.704Z,18.97
2018-07-07T00:56:19.399Z,18.91
2018-07-07T00:58:47.949Z,18.85
2018-07-07T01:01:17.017Z,18.87
2018-07-07T01:03:45.977Z,18.79
2018-07-07T01:06:26.096Z,18.72
2018-07-07T01:08:54.744Z,18.69
2018-07-07T01:11:24.639Z,18.60
2018-07-07T01:13:53.413Z,18.56
2018-07-07T01:16:22.133Z,18.57
2018-07-07T01:18:50.679Z,18.60
2018-07-07T01:21:19.230Z,18.64
2018-07-07T01:23:47.792Z,18.60
2018-07-07T01:26:16.441Z,18.45
2018-07-07T01:28:44.981Z,18.30
2018-07-07T01:31:13.534Z,18.28
2018-07-07T01:33:42.062Z,18.28
2018-07-07T01:36:10.716Z,18.24
2018-07-07T01:38:39.259Z,18.20
2018-07-07T01:41:07.897Z,18.17
2018-07-07T01:43:36.463Z,18.15
2018-07-07T01:46:05.038Z,18.08
2018-07-07T01:48:33.617Z,18.00
2018-07-07T01:51:02.192Z,17.92
2018-07-07T01:53:30.748Z,17.90
2018-07-07T01:55:59.298Z,17.87
2018-07-07T01:58:27.980Z,17.86
2018-07-07T02:00:56.584Z,17.70
2018-07-07T02:03:25.116Z,17.46
2018-07-07T02:05:53.740Z,17.33
2018-07-07T02:08:22.283Z,17.42
2018-07-07T02:10:50.807Z,17.39
2018-07-07T02:13:19.387Z,17.16
2018-07-07T02:15:47.929Z,17.11
2018-07-07T02:18:16.516Z,16.97
2018-07-07T02:20:45.088Z,16.92
2018-07-07T02:23:13.801Z,16.85
2018-07-07T02:25:42.336Z,16.92
2018-07-07T02:28:10.937Z,16.91
2018-07-07T02:30:39.515Z,16.83
2018-07-07T02:33:08.168Z,16.82
2018-07-07T02:35:37.018Z,16.82
2018-07-07T02:38:05.692Z,16.78
2018-07-07T02:40:34.616Z,16.82
2018-07-07T02:43:03.248Z,16.69
2018-07-07T02:45:31.788Z,16.65
2018-07-07T02:48:00.336Z,16.63
2018-07-07T02:50:28.994Z,16.64
2018-07-07T02:52:57.560Z,16.59
2018-07-07T02:55:26.259Z,16.60
2018-07-07T02:58:03.694Z,16.53
2018-07-07T03:00:44.187Z,16.38
2018-07-07T03:03:21.419Z,16.42
2018-07-07T03:05:58.887Z,16.39
2018-07-07T03:08:35.827Z,16.46
2018-07-07T03:11:13.765Z,16.34
2018-07-07T03:13:43.684Z,16.14
2018-07-07T03:16:12.365Z,16.10
2018-07-07T03:18:41.674Z,16.17
2018-07-07T03:21:10.768Z,16.07
2018-07-07T03:23:39.482Z,16.07
2018-07-07T03:26:08.081Z,16.10
2018-07-07T03:28:41.209Z,16.08
2018-07-07T03:31:09.814Z,16.13
2018-07-07T03:33:45.407Z,16.19
2018-07-07T03:36:23.236Z,16.15
2018-07-07T03:38:56.857Z,16.17
2018-07-07T03:41:25.426Z,16.22
2018-07-07T03:43:58.412Z,16.23
2018-07-07T03:46:26.971Z,16.26
2018-07-07T03:48:56.247Z,16.25
2018-07-07T03:51:24.823Z,16.29
2018-07-07T03:53:53.377Z,16.26
2018-07-07T03:56:22.366Z,16.23
2018-07-07T03:58:51.279Z,16.24
2018-07-07T04:01:19.827Z,16.25
2018-07-07T04:03:48.380Z,16.29
2018-07-07T04:06:16.936Z,16.25
2018-07-07T04:08:45.484Z,16.17
2018-07-07T04:11:16.476Z,16.03
2018-07-07T04:13:45.064Z,16.11
2018-07-07T04:16:13.704Z,16.12
2018-07-07T04:18:42.292Z,16.10
2018-07-07T04:21:11.005Z,16.09
2018-07-07T04:23:48.059Z,16.20
2018-07-07T04:26:16.644Z,16.29
2018-07-07T04:28:48.527Z,16.30
2018-07-07T04:31:25.892Z,16.20
2018-07-07T04:34:06.103Z,16.22
2018-07-07T04:36:39.857Z,16.31
2018-07-07T04:39:17.604Z,16.41
2018-07-07T04:41:55.029Z,16.46
2018-07-07T04:44:23.572Z,16.53
2018-07-07T04:46:52.124Z,16.55
2018-07-07T04:49:20.762Z,16.70
2018-07-07T04:51:49.740Z,16.81
2018-07-07T04:54:18.698Z,16.94
2018-07-07T04:56:50.059Z,16.99
2018-07-07T04:59:20.990Z,16.93
2018-07-07T05:01:52.302Z,17.01
2018-07-07T05:04:21.062Z,17.03
2018-07-07T05:06:49.596Z,17.28
2018-07-07T05:09:18.179Z,17.31
2018-07-07T05:11:46.716Z,17.28
2018-07-07T05:14:15.264Z,17.32
2018-07-07T05:16:43.868Z,17.44
2018-07-07T05:19:12.707Z,17.62
2018-07-07T05:21:41.252Z,17.60
2018-07-07T05:24:09.906Z,17.78
2018-07-07T05:26:38.500Z,17.82
2018-07-07T05:29:07.155Z,17.93
2018-07-07T05:31:35.777Z,18.07
2018-07-07T05:34:04.354Z,18.12
2018-07-07T05:36:32.917Z,18.07
2018-07-07T05:39:01.516Z,18.31
2018-07-07T05:41:30.051Z,18.46
2018-07-07T05:43:58.601Z,18.42
2018-07-07T05:46:27.167Z,18.53
2018-07-07T05:48:55.743Z,18.66
2018-07-07T05:51:24.303Z,18.70
2018-07-07T05:53:52.874Z,18.99
2018-07-07T05:56:21.436Z,19.16
2018-07-07T05:58:50.028Z,19.22
2018-07-07T06:01:18.633Z,19.09
2018-07-07T06:03:47.198Z,19.36
2018-07-07T06:06:16.604Z,19.42
2018-07-07T06:08:45.143Z,19.37
2018-07-07T06:11:13.752Z,19.53
2018-07-07T06:13:42.338Z,19.71
2018-07-07T06:16:10.947Z,19.85
2018-07-07T06:18:39.520Z,19.89
2018-07-07T06:21:08.240Z,19.88
2018-07-07T06:23:36.833Z,20.11
2018-07-07T06:26:05.572Z,20.22
2018-07-07T06:28:34.368Z,20.33
2018-07-07T06:31:02.937Z,20.53
2018-07-07T06:33:31.489Z,20.57
2018-07-07T06:36:00.058Z,20.51
2018-07-07T06:38:28.935Z,20.64
2018-07-07T06:40:57.671Z,20.67
2018-07-07T06:43:26.301Z,20.78
2018-07-07T06:45:55.067Z,20.88
2018-07-07T06:48:23.621Z,21.19
2018-07-07T06:50:52.281Z,21.31
2018-07-07T06:53:20.908Z,21.41
2018-07-07T06:55:49.544Z,21.40
2018-07-07T06:58:18.500Z,21.50
2018-07-07T07:00:47.060Z,21.28
2018-07-07T07:03:15.629Z,21.41
2018-07-07T07:05:44.202Z,21.58
2018-07-07T07:08:12.963Z,21.67
2018-07-07T07:10:41.541Z,21.83
2018-07-07T07:13:10.300Z,22.01
2018-07-07T07:15:38.939Z,22.10
2018-07-07T07:18:07.527Z,22.35
2018-07-07T07:20:36.104Z,22.45
2018-07-07T07:23:04.776Z,22.46
2018-07-07T07:25:33.443Z,22.65
2018-07-07T07:28:20.493Z,22.83
2018-07-07T07:30:49.101Z,22.40
2018-07-07T07:33:18.442Z,22.11
2018-07-07T07:35:47.813Z,22.07
2018-07-07T07:38:16.420Z,22.02
2018-07-07T07:40:45.781Z,22.32
2018-07-07T07:43:15.344Z,22.64
2018-07-07T07:45:44.736Z,22.47
2018-07-07T07:48:25.946Z,22.47
2018-07-07T07:50:55.352Z,22.39
2018-07-07T07:53:24.796Z,22.67
2018-07-07T07:55:53.490Z,22.91
2018-07-07T07:58:22.059Z,23.13
2018-07-07T08:00:51.431Z,23.25
2018-07-07T08:03:20.036Z,23.55
2018-07-07T08:05:48.649Z,23.66
2018-07-07T08:08:17.223Z,23.66
2018-07-07T08:10:45.801Z,23.59
2018-07-07T08:13:14.372Z,23.75
2018-07-07T08:15:43.749Z,23.51
2018-07-07T08:18:13.423Z,23.22
2018-07-07T08:20:42.156Z,22.81
2018-07-07T08:23:11.702Z,22.77
2018-07-07T08:25:42.392Z,22.88
2018-07-07T08:28:11.877Z,22.80
2018-07-07T08:30:40.804Z,22.78
2018-07-07T08:33:09.583Z,22.99
2018-07-07T08:35:38.218Z,23.19
2018-07-07T08:38:08.993Z,23.11
2018-07-07T08:40:37.573Z,22.97
2018-07-07T08:43:06.797Z,23.03
2018-07-07T08:45:35.377Z,23.27
2018-07-07T08:50:54.779Z,23.92
2018-07-07T08:53:23.373Z,23.84
2018-07-07T08:55:51.917Z,23.72
2018-07-07T09:01:11.300Z,23.75
2018-07-07T09:03:39.864Z,23.79
2018-07-07T09:06:08.476Z,23.95
2018-07-07T09:08:37.075Z,23.94
2018-07-07T09:11:05.869Z,23.91
2018-07-07T09:13:34.392Z,23.81
2018-07-07T09:16:02.976Z,23.29
2018-07-07T09:18:31.585Z,23.35
2018-07-07T09:21:00.219Z,23.27
2018-07-07T09:23:28.769Z,23.25
2018-07-07T09:25:57.365Z,23.02
2018-07-07T09:28:25.921Z,22.72
2018-07-07T09:30:54.501Z,23.07
2018-07-07T09:33:23.842Z,23.59
2018-07-07T09:35:52.443Z,23.11
2018-07-07T09:38:21.025Z,22.93
2018-07-07T09:40:49.702Z,22.92
2018-07-07T09:43:18.328Z,22.99
2018-07-07T09:45:46.917Z,22.96
2018-07-07T09:48:15.634Z,23.04
2018-07-07T09:50:44.368Z,23.42
2018-07-07T09:53:14.124Z,23.45
2018-07-07T09:55:51.431Z,23.15
2018-07-07T09:58:29.317Z,22.96
2018-07-07T10:00:57.936Z,22.80
2018-07-07T10:03:27.528Z,22.75
2018-07-07T10:05:57.076Z,22.64
2018-07-07T10:08:27.658Z,22.87
2018-07-07T10:10:57.077Z,22.89
2018-07-07T10:13:26.910Z,23.20
2018-07-07T10:15:56.399Z,23.75
2018-07-07T10:18:25.939Z,24.10
2018-07-07T10:20:54.502Z,24.23
2018-07-07T10:23:24.910Z,24.10
2018-07-07T10:25:53.685Z,23.88
2018-07-07T10:28:22.270Z,23.68
2018-07-07T10:30:50.852Z,23.56
2018-07-07T10:33:19.400Z,23.46
2018-07-07T10:38:15.617Z,23.42
2018-07-07T10:40:44.292Z,23.93
2018-07-07T10:43:13.252Z,23.96
2018-07-07T10:45:41.867Z,23.85
2018-07-07T10:48:10.411Z,24.01
2018-07-07T10:50:38.993Z,23.90
2018-07-07T10:53:07.683Z,23.77
2018-07-07T10:55:36.581Z,23.67
2018-07-07T10:58:05.208Z,23.51
2018-07-07T11:00:33.772Z,23.38
2018-07-07T11:03:02.312Z,23.78
2018-07-07T11:05:30.907Z,23.78
2018-07-07T11:07:59.458Z,23.83
2018-07-07T11:10:28.005Z,23.59
2018-07-07T11:12:56.647Z,23.87
2018-07-07T11:15:25.349Z,23.98
2018-07-07T11:17:53.913Z,24.19
2018-07-07T11:20:22.526Z,24.36
2018-07-07T11:22:51.095Z,24.31
2018-07-07T11:25:19.813Z,24.18
2018-07-07T11:27:48.434Z,24.12
2018-07-07T11:30:17.164Z,24.27
2018-07-07T11:32:45.716Z,24.49
2018-07-07T11:35:14.286Z,24.60
2018-07-07T11:37:42.858Z,24.44
2018-07-07T11:40:11.461Z,24.74
2018-07-07T11:42:40.054Z,24.96
2018-07-07T11:45:08.832Z,25.15
2018-07-07T11:47:37.544Z,25.14
2018-07-07T11:50:06.207Z,25.10
2018-07-07T11:52:34.809Z,24.71
2018-07-07T11:55:03.468Z,24.79
2018-07-07T11:57:32.087Z,24.60
2018-07-07T12:00:00.629Z,24.40
2018-07-07T12:02:29.227Z,24.65
2018-07-07T12:04:57.937Z,24.86
2018-07-07T12:07:26.492Z,24.64
2018-07-07T12:09:55.056Z,24.13
2018-07-07T12:12:23.675Z,24.34
2018-07-07T12:14:52.286Z,24.64
2018-07-07T12:17:21.767Z,24.86
2018-07-07T12:19:51.230Z,25.28
2018-07-07T12:22:19.865Z,25.42
2018-07-07T12:24:48.438Z,25.53
2018-07-07T12:27:17.114Z,25.97
2018-07-07T12:29:45.788Z,25.61
2018-07-07T12:32:14.862Z,25.67
2018-07-07T12:34:43.411Z,25.76
2018-07-07T12:37:12.160Z,25.84
2018-07-07T12:42:31.056Z,26.23
2018-07-07T12:44:59.604Z,26.02
2018-07-07T12:47:28.151Z,26.13
2018-07-07T12:49:56.690Z,26.36
2018-07-07T12:52:25.322Z,26.11
2018-07-07T12:54:53.901Z,26.26
2018-07-07T12:57:22.460Z,25.87
2018-07-07T12:59:51.000Z,25.87
2018-07-07T13:02:19.630Z,25.68
2018-07-07T13:04:48.183Z,25.53
2018-07-07T13:07:16.728Z,25.72
2018-07-07T13:09:45.281Z,25.71
2018-07-07T13:12:13.896Z,25.70
2018-07-07T13:14:42.533Z,25.82
2018-07-07T13:17:11.228Z,26.07
2018-07-07T13:19:39.816Z,26.45
2018-07-07T13:22:08.456Z,26.50
2018-07-07T13:24:37.079Z,25.96
2018-07-07T13:27:05.885Z,25.52
2018-07-07T13:29:34.479Z,25.31
2018-07-07T13:32:03.042Z,25.14
2018-07-07T13:34:31.584Z,24.91
2018-07-07T13:37:00.137Z,25.49
2018-07-07T13:39:28.749Z,25.38
2018-07-07T13:41:57.393Z,25.57
2018-07-07T13:44:25.957Z,25.98
2018-07-07T13:46:54.569Z,26.16
2018-07-07T13:49:23.443Z,26.24
2018-07-07T13:51:52.247Z,26.61
2018-07-07T13:54:20.858Z,26.10
2018-07-07T13:56:49.396Z,26.29
2018-07-07T13:59:18.008Z,26.29
2018-07-07T14:01:46.601Z,26.33
2018-07-07T14:04:15.196Z,26.21
2018-07-07T14:06:43.733Z,25.77
2018-07-07T14:09:12.356Z,26.12
2018-07-07T14:11:40.923Z,26.03
2018-07-07T14:14:10.439Z,26.23
2018-07-07T14:16:39.765Z,25.82
2018-07-07T14:19:08.405Z,26.38
2018-07-07T14:21:37.000Z,26.39
2018-07-07T14:24:05.652Z,26.36
2018-07-07T14:26:34.212Z,26.72
2018-07-07T14:29:02.782Z,26.54
2018-07-07T14:31:31.461Z,26.27
2018-07-07T14:34:00.071Z,26.33
2018-07-07T14:36:28.729Z,26.48
2018-07-07T14:38:57.263Z,26.89
2018-07-07T14:41:25.928Z,26.76
2018-07-07T14:43:57.352Z,26.28
2018-07-07T14:46:26.656Z,26.19
2018-07-07T14:48:55.258Z,26.48
2018-07-07T14:51:24.177Z,26.70
2018-07-07T14:53:52.839Z,26.57
2018-07-07T14:56:22.636Z,26.47
2018-07-07T14:58:51.733Z,26.49
2018-07-07T15:01:20.710Z,26.40
2018-07-07T15:03:49.308Z,26.56
2018-07-07T15:06:17.927Z,26.77
2018-07-07T15:08:46.519Z,26.50
2018-07-07T15:11:15.317Z,26.22
2018-07-07T15:13:43.996Z,26.26
2018-07-07T15:16:12.637Z,26.64
2018-07-07T15:18:48.236Z,27.00
2018-07-07T15:21:16.789Z,26.78
2018-07-07T15:23:45.392Z,26.85
2018-07-07T15:26:14.004Z,27.01
2018-07-07T15:28:42.635Z,26.84
2018-07-07T15:31:11.462Z,26.70
2018-07-07T15:33:40.035Z,26.36
2018-07-07T15:36:08.642Z,26.51
2018-07-07T15:38:37.193Z,26.51
2018-07-07T15:41:05.784Z,26.29
2018-07-07T15:43:34.331Z,26.61
2018-07-07T15:46:02.917Z,26.45
2018-07-07T15:48:31.555Z,26.47
2018-07-07T15:51:00.148Z,26.29
2018-07-07T15:53:28.716Z,26.04
2018-07-07T15:55:57.295Z,26.02
2018-07-07T15:58:25.866Z,26.05
2018-07-07T16:00:54.454Z,26.01
2018-07-07T16:03:23.110Z,25.82
2018-07-07T16:05:51.668Z,25.42
2018-07-07T16:08:20.212Z,25.67
2018-07-07T16:10:48.790Z,25.58
2018-07-07T16:13:18.036Z,25.54
2018-07-07T16:15:48.772Z,25.87
2018-07-07T16:18:18.111Z,25.93
2018-07-07T16:20:47.458Z,25.95
2018-07-07T16:23:17.063Z,26.20
2018-07-07T16:25:45.631Z,26.57
2018-07-07T16:28:14.287Z,26.25
2018-07-07T16:30:42.873Z,25.95
2018-07-07T16:33:11.543Z,26.04
2018-07-07T16:35:40.145Z,26.04
2018-07-07T16:38:08.748Z,25.76
2018-07-07T16:40:37.334Z,25.65
2018-07-07T16:43:06.070Z,25.47
2018-07-07T16:45:34.789Z,25.21
2018-07-07T16:48:03.376Z,25.12
2018-07-07T16:50:32.028Z,25.35
2018-07-07T16:53:00.665Z,25.46
2018-07-07T16:55:29.491Z,25.60
2018-07-07T16:57:58.172Z,25.89
2018-07-07T17:00:26.839Z,25.75
2018-07-07T17:02:55.646Z,25.52
2018-07-07T17:05:24.404Z,24.88
2018-07-07T17:07:53.080Z,24.87
2018-07-07T17:10:21.651Z,25.12
2018-07-07T17:12:50.860Z,25.20
2018-07-07T17:15:19.480Z,25.00
2018-07-07T17:17:48.137Z,24.76
2018-07-07T17:20:16.753Z,24.52
2018-07-07T17:22:47.608Z,24.18
2018-07-07T17:25:16.445Z,24.34
2018-07-07T17:27:45.095Z,24.56
2018-07-07T17:30:13.860Z,24.59
2018-07-07T17:32:42.444Z,24.56
2018-07-07T17:35:11.396Z,24.56
2018-07-07T17:37:40.036Z,24.59
2018-07-07T17:40:09.876Z,24.70
2018-07-07T17:42:38.433Z,24.63
2018-07-07T17:45:07.016Z,24.54
2018-07-07T17:47:36.114Z,24.52
2018-07-07T17:50:04.853Z,24.44
2018-07-07T17:52:34.866Z,24.42
2018-07-07T17:55:05.473Z,24.32
2018-07-07T17:57:36.676Z,24.33
2018-07-07T18:00:05.464Z,24.35
2018-07-07T18:02:34.063Z,24.33
2018-07-07T18:05:03.678Z,24.21
2018-07-07T18:07:32.436Z,24.24
2018-07-07T18:10:00.988Z,24.07
2018-07-07T18:12:29.512Z,23.84
2018-07-07T18:14:58.899Z,23.59
2018-07-07T18:17:28.367Z,23.63
2018-07-07T18:19:56.907Z,23.64
2018-07-07T18:22:25.672Z,23.62
2018-07-07T18:24:54.424Z,23.36
2018-07-07T18:27:23.035Z,23.25
2018-07-07T18:29:51.615Z,23.11
2018-07-07T18:32:20.217Z,22.98
2018-07-07T18:34:48.900Z,23.04
2018-07-07T18:37:17.466Z,22.93
2018-07-07T18:39:46.068Z,22.73
2018-07-07T18:42:14.645Z,22.58
2018-07-07T18:44:43.238Z,22.40
2018-07-07T18:47:12.075Z,22.21
2018-07-07T18:49:40.631Z,22.07
2018-07-07T18:52:14.684Z,22.01
2018-07-07T18:54:43.266Z,21.98
2018-07-07T18:57:13.058Z,21.96
2018-07-07T18:59:41.615Z,21.96
2018-07-07T19:02:10.212Z,21.89
2018-07-07T19:04:39.804Z,21.82
2018-07-07T19:07:08.401Z,21.81
2018-07-07T19:09:36.999Z,21.60
2018-07-07T19:12:05.680Z,21.53
2018-07-07T19:14:34.233Z,21.52
2018-07-07T19:17:02.848Z,21.52
2018-07-07T19:19:31.395Z,21.49
2018-07-07T19:22:05.875Z,21.38
2018-07-07T19:24:40.539Z,21.15
2018-07-07T19:27:09.133Z,21.16
2018-07-07T19:29:38.597Z,21.15
2018-07-07T19:32:13.127Z,21.09
2018-07-07T19:35:44.260Z,20.99
2018-07-07T19:38:13.716Z,20.73
2018-07-07T19:40:43.132Z,20.66
2018-07-07T19:43:11.786Z,20.56
2018-07-07T19:45:40.384Z,20.45
2018-07-07T19:48:10.125Z,20.44
2018-07-07T19:50:38.728Z,20.34
2018-07-07T19:53:07.432Z,20.14
2018-07-07T19:55:35.992Z,19.96
2018-07-07T19:58:04.565Z,19.74
2018-07-07T20:00:33.103Z,19.71
2018-07-07T20:03:01.678Z,19.63
2018-07-07T20:05:31.048Z,19.55
2018-07-07T20:07:59.591Z,19.41
2018-07-07T20:10:28.185Z,19.33
2018-07-07T20:12:56.832Z,19.29
2018-07-07T20:15:36.560Z,19.25
2018-07-07T20:18:06.504Z,19.21
2018-07-07T20:20:40.166Z,19.22
2018-07-07T20:23:16.499Z,19.05
2018-07-07T20:25:50.379Z,19.07
2018-07-07T20:28:24.449Z,18.89
2018-07-07T20:30:57.794Z,18.90
2018-07-07T20:33:27.172Z,18.87
2018-07-07T20:35:55.811Z,18.83
2018-07-07T20:38:24.647Z,18.80
2018-07-07T20:40:53.448Z,18.82
2018-07-07T20:43:22.047Z,18.73
2018-07-07T20:45:50.626Z,18.74
2018-07-07T20:48:19.176Z,18.84
2018-07-07T20:50:47.707Z,18.87
2018-07-07T20:55:36.010Z,19.08
2018-07-07T20:58:04.648Z,19.13
2018-07-07T21:00:33.269Z,19.18
2018-07-07T21:03:01.822Z,19.24
2018-07-07T21:05:30.461Z,19.22
2018-07-07T21:07:59.108Z,19.23
2018-07-07T21:10:27.691Z,19.29
2018-07-07T21:12:56.299Z,19.29
2018-07-07T21:15:24.931Z,19.29
2018-07-07T21:17:53.497Z,19.24
2018-07-07T21:20:22.080Z,19.15
2018-07-07T21:22:50.639Z,18.94
2018-07-07T21:25:19.205Z,18.90
2018-07-07T21:27:47.823Z,18.95
2018-07-07T21:30:16.496Z,18.96
2018-07-07T21:32:45.052Z,18.97
2018-07-07T21:35:13.674Z,18.88
2018-07-07T21:37:42.288Z,18.89
2018-07-07T21:40:10.880Z,18.84
2018-07-07T21:42:39.664Z,18.82
2018-07-07T21:45:08.285Z,18.72
2018-07-07T21:47:36.877Z,18.69
2018-07-07T21:50:05.911Z,18.67
2018-07-07T21:52:34.492Z,18.58
2018-07-07T21:55:03.144Z,18.51
2018-07-07T21:57:36.859Z,18.51
2018-07-07T22:00:06.077Z,18.46
2018-07-07T22:02:40.672Z,18.34
2018-07-07T22:05:14.355Z,18.28
2018-07-07T22:07:42.931Z,18.22
2018-07-07T22:10:11.612Z,18.23
2018-07-07T22:12:40.171Z,18.08
2018-07-07T22:15:08.934Z,17.92
2018-07-07T22:17:37.500Z,17.82
2018-07-07T22:20:06.112Z,17.76
2018-07-07T22:22:34.715Z,17.73
2018-07-07T22:25:03.367Z,17.68
2018-07-07T22:27:32.049Z,17.73
2018-07-07T22:30:00.656Z,17.77
2018-07-07T22:32:33.410Z,17.73
2018-07-07T22:35:07.463Z,17.71
2018-07-07T22:37:36.109Z,17.68
2018-07-07T22:40:04.748Z,17.70
2018-07-07T22:42:33.296Z,17.64
2018-07-07T22:45:01.937Z,17.43
2018-07-07T22:47:30.536Z,17.36
2018-07-07T22:49:59.110Z,17.23
2018-07-07T22:52:27.711Z,17.10
2018-07-07T22:54:56.267Z,17.00
2018-07-07T22:57:24.897Z,17.03
2018-07-07T22:59:53.596Z,17.23
2018-07-07T23:02:22.196Z,17.34
2018-07-07T23:04:50.865Z,17.34
2018-07-07T23:07:19.441Z,17.39
2018-07-07T23:09:48.007Z,17.44
2018-07-07T23:12:16.608Z,17.46
2018-07-07T23:14:45.219Z,17.44
2018-07-07T23:17:14.001Z,17.47
2018-07-07T23:19:42.713Z,17.44
2018-07-07T23:22:12.184Z,17.41
2018-07-07T23:24:40.765Z,17.33
2018-07-07T23:27:09.407Z,17.20
2018-07-07T23:29:38.153Z,17.17
2018-07-07T23:32:06.763Z,17.07
2018-07-07T23:34:35.371Z,17.03
2018-07-07T23:37:03.987Z,16.92
2018-07-07T23:39:32.516Z,16.90
2018-07-07T23:42:01.122Z,16.84
2018-07-07T23:44:29.745Z,16.89
2018-07-07T23:46:58.351Z,16.99
2018-07-07T23:49:27.184Z,17.07
2018-07-07T23:51:55.848Z,17.08
2018-07-07T23:54:24.462Z,17.07
2018-07-07T23:56:53.020Z,16.88
2018-07-07T23:59:21.614Z,16.81
